createdAt,value
2018-04-13T00:00:31.881Z,49.50
2018-04-13T00:02:59.779Z,49.40
2018-04-13T00:05:26.082Z,49.30
2018-04-13T00:07:53.387Z,49.70
2018-04-13T00:10:20.929Z,49.40
2018-04-13T00:12:47.722Z,49.40
2018-04-13T00:15:14.897Z,49.40
2018-04-13T00:17:41.081Z,49.40
2018-04-13T00:20:13.380Z,49.70
2018-04-13T00:22:40.996Z,49.80
2018-04-13T00:25:13.647Z,49.70
2018-04-13T00:27:46.628Z,49.70
2018-04-13T00:30:13.025Z,49.70
2018-04-13T00:32:39.978Z,50.20
2018-04-13T00:35:07.162Z,50.10
2018-04-13T00:37:40.022Z,50.00
2018-04-13T00:40:06.286Z,50.00
2018-04-13T00:42:33.057Z,50.00
2018-04-13T00:45:05.897Z,50.30
2018-04-13T00:47:32.617Z,50.40
2018-04-13T00:49:59.788Z,50.50
2018-04-13T00:52:32.081Z,50.30
2018-04-13T00:54:58.891Z,50.50
2018-04-13T00:57:25.687Z,50.60
2018-04-13T00:59:52.252Z,50.70
2018-04-13T01:02:19.308Z,50.80
2018-04-13T01:04:52.033Z,50.70
2018-04-13T01:07:19.254Z,50.40
2018-04-13T01:09:45.469Z,50.40
2018-04-13T01:12:19.122Z,50.40
2018-04-13T01:14:46.181Z,50.20
2018-04-13T01:17:12.927Z,50.40
2018-04-13T01:19:39.899Z,50.20
2018-04-13T01:22:06.781Z,50.20
2018-04-13T01:24:33.502Z,50.40
2018-04-13T01:26:59.717Z,50.40
2018-04-13T01:29:32.294Z,50.40
2018-04-13T01:32:06.400Z,49.90
2018-04-13T01:34:39.295Z,49.90
2018-04-13T01:37:11.945Z,50.50
2018-04-13T01:39:39.127Z,49.90
2018-04-13T01:42:06.049Z,49.90
2018-04-13T01:44:38.335Z,49.90
2018-04-13T01:47:04.533Z,50.10
2018-04-13T01:49:38.322Z,50.40
2018-04-13T01:52:04.553Z,50.40
2018-04-13T01:54:38.253Z,50.50
2018-04-13T01:57:11.924Z,50.80
2018-04-13T01:59:44.201Z,50.80
2018-04-13T02:02:16.536Z,50.50
2018-04-13T02:04:42.761Z,50.50
2018-04-13T02:07:21.747Z,51.00
2018-04-13T02:09:48.849Z,50.30
2018-04-13T02:12:21.802Z,50.50
2018-04-13T02:14:54.937Z,50.70
2018-04-13T02:17:27.814Z,50.70
2018-04-13T02:19:54.179Z,51.00
2018-04-13T02:22:21.129Z,51.70
2018-04-13T02:24:54.863Z,51.70
2018-04-13T02:27:23.058Z,51.90
2018-04-13T02:29:49.827Z,51.30
2018-04-13T02:32:16.233Z,51.40
2018-04-13T02:34:42.434Z,51.40
2018-04-13T02:37:09.675Z,51.70
2018-04-13T02:39:36.613Z,52.30
2018-04-13T02:42:09.897Z,53.00
2018-04-13T02:44:43.388Z,52.70
2018-04-13T02:47:10.352Z,53.80
2018-04-13T02:49:37.450Z,54.10
2018-04-13T02:52:10.471Z,54.40
2018-04-13T02:54:36.706Z,54.40
2018-04-13T02:57:03.997Z,54.60
2018-04-13T02:59:31.287Z,56.00
2018-04-13T03:01:58.008Z,56.40
2018-04-13T03:04:25.345Z,56.90
2018-04-13T03:07:03.830Z,57.10
2018-04-13T03:09:30.773Z,57.50
2018-04-13T03:11:57.710Z,57.60
2018-04-13T03:14:24.002Z,57.60
2018-04-13T03:16:57.451Z,58.30
2018-04-13T03:19:30.693Z,58.20
2018-04-13T03:21:57.050Z,58.20
2018-04-13T03:24:24.026Z,58.70
2018-04-13T03:26:50.945Z,58.80
2018-04-13T03:29:23.368Z,58.70
2018-04-13T03:31:50.377Z,57.90
2018-04-13T03:34:17.321Z,57.50
2018-04-13T03:36:44.908Z,57.40
2018-04-13T03:39:11.917Z,57.50
2018-04-13T03:41:38.236Z,57.50
2018-04-13T03:44:04.712Z,57.40
2018-04-13T03:46:32.662Z,58.00
2018-04-13T03:49:05.731Z,60.00
2018-04-13T03:51:31.942Z,60.00
2018-04-13T03:53:58.136Z,61.00
2018-04-13T03:56:24.358Z,61.80
2018-04-13T03:58:51.101Z,62.00
2018-04-13T04:01:24.787Z,62.60
2018-04-13T04:03:52.004Z,62.60
2018-04-13T04:06:18.202Z,62.80
2018-04-13T04:08:44.431Z,60.80
2018-04-13T04:11:16.827Z,60.40
2018-04-13T04:13:43.724Z,59.70
2018-04-13T04:16:09.918Z,59.40
2018-04-13T04:18:43.604Z,59.90
2018-04-13T04:21:21.917Z,59.90
2018-04-13T04:24:06.543Z,59.50
2018-04-13T04:26:44.809Z,59.40
2018-04-13T04:29:12.427Z,59.20
2018-04-13T04:31:39.151Z,59.20
2018-04-13T04:34:11.661Z,58.90
2018-04-13T04:36:39.304Z,58.60
2018-04-13T04:39:07.296Z,58.30
2018-04-13T04:41:39.784Z,58.70
2018-04-13T04:44:08.005Z,59.20
2018-04-13T04:46:35.773Z,59.20
2018-04-13T04:49:08.141Z,58.70
2018-04-13T04:51:34.701Z,58.80
2018-04-13T04:54:00.898Z,59.00
2018-04-13T04:56:27.481Z,59.20
2018-04-13T04:58:53.744Z,59.20
2018-04-13T05:01:32.167Z,58.80
2018-04-13T05:04:04.396Z,59.10
2018-04-13T05:06:43.306Z,59.00
2018-04-13T05:09:23.051Z,58.90
2018-04-13T05:11:49.341Z,58.70
2018-04-13T05:14:16.233Z,58.60
2018-04-13T05:16:43.021Z,58.60
2018-04-13T05:19:09.422Z,58.50
2018-04-13T05:21:37.808Z,58.80
2018-04-13T05:24:05.960Z,58.90
2018-04-13T05:26:33.477Z,58.80
2018-04-13T05:29:00.247Z,58.80
2018-04-13T05:31:27.036Z,58.70
2018-04-13T05:33:53.757Z,58.60
2018-04-13T05:36:26.593Z,58.80
2018-04-13T05:38:53.719Z,58.80
2018-04-13T05:41:20.288Z,58.70
2018-04-13T05:43:47.282Z,58.20
2018-04-13T05:46:14.360Z,58.10
2018-04-13T05:48:41.793Z,57.30
2018-04-13T05:51:09.280Z,57.10
2018-04-13T05:53:37.237Z,57.20
2018-04-13T05:56:09.447Z,57.20
2018-04-13T05:58:42.241Z,57.30
2018-04-13T06:01:15.695Z,56.90
2018-04-13T06:03:41.917Z,56.90
2018-04-13T06:06:08.666Z,56.40
2018-04-13T06:08:47.870Z,56.70
2018-04-13T06:11:14.534Z,56.60
2018-04-13T06:13:40.829Z,56.30
2018-04-13T06:16:08.000Z,56.40
2018-04-13T06:18:40.213Z,56.50
2018-04-13T06:21:12.434Z,56.60
2018-04-13T06:23:46.029Z,56.50
2018-04-13T06:26:12.464Z,56.80
2018-04-13T06:28:39.842Z,56.40
2018-04-13T06:31:08.020Z,56.20
2018-04-13T06:33:41.655Z,56.00
2018-04-13T06:36:14.851Z,56.30
2018-04-13T06:38:41.906Z,56.50
2018-04-13T06:41:09.442Z,55.90
2018-04-13T06:43:35.644Z,55.80
2018-04-13T06:46:08.530Z,56.10
2018-04-13T06:48:40.760Z,55.50
2018-04-13T06:51:06.903Z,55.70
2018-04-13T06:53:34.408Z,56.90
2018-04-13T06:56:07.920Z,56.70
2018-04-13T06:58:41.450Z,56.20
2018-04-13T07:01:07.669Z,56.20
2018-04-13T07:03:34.449Z,56.00
2018-04-13T07:06:00.641Z,56.00
2018-04-13T07:08:27.487Z,55.80
2018-04-13T07:11:00.023Z,55.00
2018-04-13T07:13:27.545Z,55.20
2018-04-13T07:15:53.793Z,55.10
2018-04-13T07:18:32.450Z,54.10
2018-04-13T07:21:04.753Z,54.80
2018-04-13T07:23:32.114Z,55.00
2018-04-13T07:25:58.935Z,55.20
2018-04-13T07:28:26.332Z,52.10
2018-04-13T07:30:53.939Z,52.40
2018-04-13T07:33:26.329Z,52.40
2018-04-13T07:35:53.479Z,51.20
2018-04-13T07:38:20.300Z,52.60
2018-04-13T07:40:47.063Z,48.10
2018-04-13T07:43:20.005Z,49.50
2018-04-13T07:45:55.095Z,46.40
2018-04-13T07:48:21.000Z,46.40
2018-04-13T07:50:47.216Z,46.40
2018-04-13T07:53:14.147Z,45.90
2018-04-13T07:55:40.554Z,46.90
2018-04-13T07:58:14.331Z,46.90
2018-04-13T08:00:41.669Z,46.80
2018-04-13T08:03:08.470Z,48.00
2018-04-13T08:05:41.435Z,50.00
2018-04-13T08:08:08.603Z,50.00
2018-04-13T08:10:41.639Z,49.70
2018-04-13T08:13:08.170Z,49.70
2018-04-13T08:15:41.829Z,48.10
2018-04-13T08:18:14.800Z,45.90
2018-04-13T08:20:48.065Z,45.80
2018-04-13T08:23:20.674Z,43.90
2018-04-13T08:25:47.656Z,44.90
2018-04-13T08:28:20.691Z,44.90
2018-04-13T08:30:47.034Z,43.30
2018-04-13T08:33:26.050Z,42.70
2018-04-13T08:35:58.506Z,41.40
2018-04-13T08:38:25.491Z,40.10
2018-04-13T08:40:53.092Z,38.90
2018-04-13T08:43:26.918Z,38.80
2018-04-13T08:45:53.639Z,38.80
2018-04-13T08:48:21.176Z,38.30
2018-04-13T08:50:49.168Z,37.30
2018-04-13T08:53:21.648Z,37.30
2018-04-13T08:55:47.848Z,37.70
2018-04-13T08:58:14.052Z,37.10
2018-04-13T09:00:48.374Z,35.30
2018-04-13T09:03:16.325Z,35.40
2018-04-13T09:05:42.572Z,35.30
2018-04-13T09:08:16.098Z,35.10
2018-04-13T09:10:42.867Z,35.00
2018-04-13T09:13:09.583Z,34.70
2018-04-13T09:15:35.783Z,36.20
2018-04-13T09:18:09.133Z,35.90
2018-04-13T09:20:35.645Z,35.90
2018-04-13T09:23:03.107Z,34.20
2018-04-13T09:25:49.022Z,33.10
2018-04-13T09:28:16.265Z,33.10
2018-04-13T09:30:43.529Z,30.90
2018-04-13T09:33:10.321Z,30.20
2018-04-13T09:35:49.457Z,30.40
2018-04-13T09:38:16.284Z,32.10
2018-04-13T09:40:49.128Z,31.30
2018-04-13T09:43:15.999Z,32.20
2018-04-13T09:45:42.222Z,31.80
2018-04-13T09:48:08.656Z,31.10
2018-04-13T09:50:42.503Z,33.00
2018-04-13T09:53:09.370Z,33.00
2018-04-13T09:55:42.802Z,33.20
2018-04-13T09:58:15.694Z,33.70
2018-04-13T10:00:43.096Z,34.40
2018-04-13T10:03:16.136Z,33.60
2018-04-13T10:05:49.001Z,32.10
2018-04-13T10:08:21.290Z,31.40
2018-04-13T10:11:00.309Z,30.20
2018-04-13T10:13:33.178Z,30.80
2018-04-13T10:16:06.964Z,31.10
2018-04-13T10:18:34.015Z,30.90
2018-04-13T10:21:07.332Z,30.90
2018-04-13T10:23:34.652Z,30.80
2018-04-13T10:26:01.394Z,30.30
2018-04-13T10:28:27.589Z,30.40
2018-04-13T10:30:54.550Z,30.70
2018-04-13T10:33:23.317Z,30.30
2018-04-13T10:35:49.660Z,29.90
2018-04-13T10:38:23.376Z,29.70
2018-04-13T10:40:50.920Z,30.10
2018-04-13T10:43:17.912Z,30.00
2018-04-13T10:45:44.658Z,30.00
2018-04-13T10:48:10.923Z,30.00
2018-04-13T10:50:43.062Z,30.20
2018-04-13T10:53:09.278Z,30.30
2018-04-13T10:55:35.494Z,30.60
2018-04-13T10:58:01.732Z,30.00
2018-04-13T11:00:27.974Z,29.70
2018-04-13T11:02:55.153Z,30.10
2018-04-13T11:05:27.444Z,30.50
2018-04-13T11:08:01.210Z,30.20
2018-04-13T11:10:33.593Z,30.20
2018-04-13T11:13:00.388Z,30.80
2018-04-13T11:15:32.641Z,30.70
2018-04-13T11:18:01.261Z,30.00
2018-04-13T11:20:34.183Z,31.10
2018-04-13T11:23:01.691Z,31.30
2018-04-13T11:25:34.497Z,31.30
2018-04-13T11:28:01.334Z,31.30
2018-04-13T11:30:27.566Z,32.40
2018-04-13T11:33:00.587Z,35.80
2018-04-13T11:35:35.020Z,46.10
2018-04-13T11:38:01.321Z,46.00
2018-04-13T11:40:35.161Z,49.70
2018-04-13T11:43:02.123Z,49.80
2018-04-13T11:45:32.003Z,49.20
2018-04-13T11:47:59.330Z,51.20
2018-04-13T11:50:25.581Z,49.00
2018-04-13T11:52:53.129Z,53.20
2018-04-13T11:55:20.981Z,53.90
2018-04-13T11:57:53.327Z,53.80
2018-04-13T12:00:19.533Z,57.30
2018-04-13T12:02:46.097Z,59.20
2018-04-13T12:05:12.858Z,60.70
2018-04-13T12:07:40.728Z,64.10
2018-04-13T12:10:07.720Z,64.10
2018-04-13T12:12:33.985Z,66.10
2018-04-13T12:15:00.187Z,66.00
2018-04-13T12:17:26.678Z,63.80
2018-04-13T12:19:53.800Z,66.70
2018-04-13T12:22:20.660Z,66.70
2018-04-13T12:24:47.424Z,62.80
2018-04-13T12:27:14.449Z,64.00
2018-04-13T12:29:41.620Z,59.30
2018-04-13T12:32:07.929Z,60.00
2018-04-13T12:34:34.204Z,58.30
2018-04-13T12:37:01.340Z,59.40
2018-04-13T12:39:28.988Z,59.90
2018-04-13T12:41:56.452Z,61.90
2018-04-13T12:44:22.918Z,61.90
2018-04-13T12:46:49.273Z,59.40
2018-04-13T12:49:15.915Z,58.30
2018-04-13T12:51:43.185Z,59.00
2018-04-13T12:54:10.789Z,59.90
2018-04-13T12:56:38.444Z,59.60
2018-04-13T12:59:05.174Z,59.60
2018-04-13T13:01:31.575Z,58.90
2018-04-13T13:03:59.083Z,54.80
2018-04-13T13:06:25.616Z,54.80
2018-04-13T13:08:52.674Z,58.80
2018-04-13T13:11:18.947Z,58.80
2018-04-13T13:13:46.553Z,65.10
2018-04-13T13:16:12.778Z,65.10
2018-04-13T13:18:39.013Z,66.00
2018-04-13T13:21:05.276Z,67.30
2018-04-13T13:23:31.551Z,65.70
2018-04-13T13:25:58.191Z,66.80
2018-04-13T13:28:24.627Z,68.00
2018-04-13T13:30:51.710Z,68.80
2018-04-13T13:33:18.179Z,68.80
2018-04-13T13:35:45.251Z,69.30
2018-04-13T13:38:12.059Z,69.30
2018-04-13T13:40:38.873Z,69.50
2018-04-13T13:43:05.588Z,70.50
2018-04-13T13:45:32.883Z,69.40
2018-04-13T13:47:59.748Z,71.20
2018-04-13T13:50:27.379Z,71.90
2018-04-13T13:52:54.380Z,72.70
2018-04-13T13:55:21.185Z,72.70
2018-04-13T13:57:48.186Z,73.00
2018-04-13T14:00:14.386Z,72.90
2018-04-13T14:02:41.526Z,75.20
2018-04-13T14:05:07.843Z,75.30
2018-04-13T14:07:35.913Z,76.80
2018-04-13T14:10:03.920Z,73.70
2018-04-13T14:12:30.711Z,73.60
2018-04-13T14:14:57.708Z,71.50
2018-04-13T14:17:23.871Z,71.50
2018-04-13T14:19:50.597Z,71.40
2018-04-13T14:22:17.527Z,70.70
2018-04-13T14:24:44.602Z,71.70
2018-04-13T14:27:10.909Z,71.70
2018-04-13T14:29:37.780Z,73.00
2018-04-13T14:32:04.660Z,72.80
2018-04-13T14:34:31.402Z,72.30
2018-04-13T14:36:58.603Z,72.10
2018-04-13T14:39:25.720Z,72.70
2018-04-13T14:41:52.332Z,72.60
2018-04-13T14:44:18.547Z,72.00
2018-04-13T14:46:45.583Z,69.60
2018-04-13T14:49:13.241Z,69.70
2018-04-13T14:51:39.449Z,69.60
2018-04-13T14:54:06.271Z,71.00
2018-04-13T14:56:32.460Z,69.70
2018-04-13T14:59:00.427Z,69.40
2018-04-13T15:01:28.369Z,69.00
2018-04-13T15:03:55.612Z,69.00
2018-04-13T15:06:22.562Z,68.50
2018-04-13T15:08:48.738Z,66.60
2018-04-13T15:11:15.842Z,66.30
2018-04-13T15:13:42.696Z,66.40
2018-04-13T15:16:09.982Z,67.30
2018-04-13T15:18:37.537Z,68.30
2018-04-13T15:21:03.818Z,68.20
2018-04-13T15:23:30.044Z,68.50
2018-04-13T15:25:56.248Z,68.60
2018-04-13T15:28:23.201Z,66.70
2018-04-13T15:30:50.390Z,66.10
2018-04-13T15:33:17.313Z,67.50
2018-04-13T15:35:43.799Z,67.40
2018-04-13T15:38:11.190Z,66.20
2018-04-13T15:40:37.421Z,66.10
2018-04-13T15:43:03.677Z,68.70
2018-04-13T15:45:30.602Z,71.00
2018-04-13T15:47:57.040Z,70.90
2018-04-13T15:50:23.267Z,63.20
2018-04-13T15:52:50.138Z,63.00
2018-04-13T15:55:16.324Z,63.60
2018-04-13T15:57:42.587Z,64.00
2018-04-13T16:00:09.372Z,64.40
2018-04-13T16:02:35.661Z,65.70
2018-04-13T16:05:02.746Z,66.50
2018-04-13T16:07:29.185Z,67.40
2018-04-13T16:09:56.267Z,68.20
2018-04-13T16:12:23.525Z,69.20
2018-04-13T16:14:49.877Z,69.00
2018-04-13T16:17:17.620Z,69.50
2018-04-13T16:19:45.597Z,69.40
2018-04-13T16:22:12.769Z,68.70
2018-04-13T16:24:39.936Z,68.60
2018-04-13T16:27:06.226Z,67.90
2018-04-13T16:29:34.901Z,67.30
2018-04-13T16:32:02.385Z,64.70
2018-04-13T16:34:28.775Z,64.70
2018-04-13T16:36:54.982Z,64.80
2018-04-13T16:39:21.178Z,64.50
2018-04-13T16:41:47.401Z,65.20
2018-04-13T16:44:13.657Z,65.80
2018-04-13T16:46:40.591Z,64.80
2018-04-13T16:49:07.455Z,64.10
2018-04-13T16:51:34.587Z,63.50
2018-04-13T16:54:01.475Z,63.50
2018-04-13T16:56:29.253Z,63.90
2018-04-13T16:58:56.440Z,63.40
2018-04-13T17:01:24.417Z,63.70
2018-04-13T17:03:52.500Z,64.20
2018-04-13T17:06:19.695Z,64.10
2018-04-13T17:08:47.231Z,64.30
2018-04-13T17:11:14.328Z,63.40
2018-04-13T17:13:42.426Z,63.50
2018-04-13T17:16:08.754Z,63.50
2018-04-13T17:18:36.170Z,63.70
2018-04-13T17:21:02.571Z,63.50
2018-04-13T17:23:28.840Z,63.50
2018-04-13T17:25:55.617Z,63.20
2018-04-13T17:28:21.882Z,62.30
2018-04-13T17:30:48.854Z,61.10
2018-04-13T17:33:16.023Z,61.10
2018-04-13T17:35:42.973Z,59.70
2018-04-13T17:38:09.291Z,60.30
2018-04-13T17:40:36.245Z,60.80
2018-04-13T17:43:02.509Z,59.20
2018-04-13T17:45:29.630Z,58.50
2018-04-13T17:47:56.142Z,59.80
2018-04-13T17:50:23.698Z,60.00
2018-04-13T17:52:51.103Z,62.50
2018-04-13T17:55:18.179Z,63.00
2018-04-13T17:57:45.668Z,62.70
2018-04-13T18:00:11.897Z,62.50
2018-04-13T18:02:38.598Z,62.20
2018-04-13T18:05:05.753Z,62.50
2018-04-13T18:07:32.680Z,63.00
2018-04-13T18:09:59.306Z,63.00
2018-04-13T18:12:26.261Z,63.20
2018-04-13T18:14:52.453Z,63.10
2018-04-13T18:17:18.650Z,63.70
2018-04-13T18:19:44.864Z,63.80
2018-04-13T18:22:11.094Z,63.60
2018-04-13T18:24:38.938Z,64.70
2018-04-13T18:27:05.163Z,64.70
2018-04-13T18:29:31.990Z,64.90
2018-04-13T18:31:59.393Z,64.70
2018-04-13T18:34:25.857Z,64.60
2018-04-13T18:36:52.770Z,64.80
2018-04-13T18:39:19.231Z,64.40
2018-04-13T18:41:46.205Z,64.60
2018-04-13T18:44:13.249Z,65.10
2018-04-13T18:46:39.617Z,65.70
2018-04-13T18:49:07.113Z,65.90
2018-04-13T18:51:34.946Z,65.90
2018-04-13T18:54:02.897Z,65.90
2018-04-13T18:56:30.475Z,66.20
2018-04-13T18:58:56.814Z,66.20
2018-04-13T19:01:23.721Z,65.50
2018-04-13T19:03:49.965Z,65.60
2018-04-13T19:06:18.083Z,65.60
2018-04-13T19:08:44.331Z,65.60
2018-04-13T19:11:11.590Z,65.70
2018-04-13T19:13:38.649Z,66.20
2018-04-13T19:16:05.774Z,66.80
2018-04-13T19:18:32.967Z,66.70
2018-04-13T19:21:00.155Z,66.40
2018-04-13T19:23:26.501Z,66.40
2018-04-13T19:25:52.941Z,67.60
2018-04-13T19:28:23.333Z,67.70
2018-04-13T19:30:49.596Z,67.60
2018-04-13T19:33:16.481Z,66.80
2018-04-13T19:35:43.289Z,66.70
2018-04-13T19:38:10.331Z,67.50
2018-04-13T19:40:38.148Z,67.50
2018-04-13T19:43:04.442Z,68.40
2018-04-13T19:45:31.515Z,68.70
2018-04-13T19:47:58.897Z,68.80
2018-04-13T19:50:26.183Z,69.30
2018-04-13T19:52:52.473Z,69.30
2018-04-13T19:55:18.781Z,69.80
2018-04-13T19:57:45.088Z,69.50
2018-04-13T20:00:11.291Z,69.20
2018-04-13T20:02:37.578Z,69.90
2018-04-13T20:05:04.681Z,69.70
2018-04-13T20:07:31.735Z,69.70
2018-04-13T20:09:58.526Z,69.70
2018-04-13T20:12:24.806Z,69.80
2018-04-13T20:14:51.075Z,70.30
2018-04-13T20:17:17.331Z,69.80
2018-04-13T20:19:44.100Z,69.30
2018-04-13T20:22:10.374Z,70.40
2018-04-13T20:24:37.608Z,69.60
2018-04-13T20:27:04.566Z,69.90
2018-04-13T20:29:31.318Z,69.90
2018-04-13T20:31:57.827Z,69.70
2018-04-13T20:34:25.078Z,69.40
2018-04-13T20:36:51.313Z,70.10
2018-04-13T20:39:17.494Z,70.50
2018-04-13T20:41:44.381Z,70.70
2018-04-13T20:44:11.134Z,70.30
2018-04-13T20:46:37.344Z,70.10
2018-04-13T20:49:04.364Z,70.20
2018-04-13T20:51:30.896Z,70.20
2018-04-13T20:53:58.524Z,71.20
2018-04-13T20:56:24.764Z,71.00
2018-04-13T20:58:50.990Z,70.90
2018-04-13T21:01:17.188Z,70.50
2018-04-13T21:03:44.085Z,71.30
2018-04-13T21:06:10.324Z,71.40
2018-04-13T21:08:37.514Z,69.70
2018-04-13T21:11:04.400Z,70.20
2018-04-13T21:13:31.970Z,71.20
2018-04-13T21:15:58.529Z,71.20
2018-04-13T21:18:26.007Z,72.00
2018-04-13T21:20:53.041Z,72.00
2018-04-13T21:23:19.444Z,71.30
2018-04-13T21:25:45.716Z,71.80
2018-04-13T21:28:12.773Z,71.90
2018-04-13T21:30:39.994Z,71.80
2018-04-13T21:33:08.282Z,71.80
2018-04-13T21:35:34.607Z,71.70
2018-04-13T21:38:00.953Z,71.40
2018-04-13T21:40:27.584Z,71.70
2018-04-13T21:42:55.651Z,71.50
2018-04-13T21:45:22.938Z,71.50
2018-04-13T21:47:49.332Z,72.60
2018-04-13T21:50:16.791Z,73.00
2018-04-13T21:52:43.557Z,72.90
2018-04-13T21:55:09.768Z,74.60
2018-04-13T21:57:35.990Z,75.10
2018-04-13T22:00:02.322Z,75.10
2018-04-13T22:02:29.115Z,75.20
2018-04-13T22:04:56.065Z,77.40
2018-04-13T22:07:22.318Z,77.40
2018-04-13T22:09:49.890Z,76.70
2018-04-13T22:12:30.293Z,76.10
2018-04-13T22:14:57.684Z,75.60
2018-04-13T22:17:25.040Z,76.20
2018-04-13T22:19:53.170Z,76.90
2018-04-13T22:22:19.911Z,76.80
2018-04-13T22:24:46.239Z,76.30
2018-04-13T22:27:12.446Z,76.90
2018-04-13T22:29:38.629Z,77.00
2018-04-13T22:32:05.359Z,76.80
2018-04-13T22:34:32.154Z,76.40
2018-04-13T22:36:58.369Z,76.40
2018-04-13T22:39:25.658Z,76.40
2018-04-13T22:41:51.837Z,76.30
2018-04-13T22:44:18.794Z,76.00
2018-04-13T22:46:44.985Z,76.00
2018-04-13T22:49:11.851Z,76.30
2018-04-13T22:51:38.932Z,76.00
2018-04-13T22:54:05.125Z,76.00
2018-04-13T22:56:31.337Z,76.30
2018-04-13T22:58:58.277Z,76.70
2018-04-13T23:01:24.492Z,76.50
2018-04-13T23:03:51.227Z,76.90
2018-04-13T23:06:17.526Z,76.00
2018-04-13T23:08:43.964Z,76.30
2018-04-13T23:11:11.009Z,75.90
2018-04-13T23:13:37.246Z,75.80
2018-04-13T23:16:03.996Z,76.00
2018-04-13T23:21:05.051Z,76.40
2018-04-13T23:23:32.460Z,76.30
2018-04-13T23:25:59.914Z,76.80
2018-04-13T23:28:26.886Z,77.00
2018-04-13T23:30:53.244Z,76.80
2018-04-13T23:33:20.793Z,77.10
2018-04-13T23:35:46.993Z,77.00
2018-04-13T23:38:13.746Z,76.70
2018-04-13T23:40:40.411Z,77.30
2018-04-13T23:43:08.086Z,77.70
2018-04-13T23:45:35.272Z,77.60
2018-04-13T23:48:01.531Z,77.00
2018-04-13T23:50:28.006Z,77.10
2018-04-13T23:52:55.835Z,77.40
2018-04-13T23:55:22.922Z,77.80
2018-04-13T23:57:50.524Z,78.70
